createdAt,value
2022-09-26T00:01:21.813Z,3.72
2022-09-26T00:03:24.150Z,3.83
2022-09-26T00:05:26.580Z,4.90
2022-09-26T00:07:28.579Z,3.92
2022-09-26T00:09:30.572Z,3.58
2022-09-26T00:11:34.456Z,3.80
2022-09-26T00:13:40.570Z,3.22
2022-09-26T00:15:42.743Z,4.15
2022-09-26T00:17:47.134Z,3.10
2022-09-26T00:19:49.348Z,3.75
2022-09-26T00:21:51.846Z,3.42
2022-09-26T00:23:55.369Z,3.83
2022-09-26T00:26:00.961Z,2.97
2022-09-26T00:28:03.422Z,3.25
2022-09-26T00:30:06.808Z,3.88
2022-09-26T00:32:08.864Z,3.28
2022-09-26T00:34:15.902Z,3.72
2022-09-26T00:36:18.266Z,3.25
2022-09-26T00:38:20.973Z,3.40
2022-09-26T00:40:28.266Z,3.33
2022-09-26T00:42:30.425Z,3.03
2022-09-26T00:44:50.657Z,3.50
2022-09-26T00:46:52.884Z,3.28
2022-09-26T00:49:13.874Z,3.22
2022-09-26T00:51:16.206Z,3.63
2022-09-26T00:53:26.173Z,2.92
2022-09-26T00:55:35.199Z,3.42
2022-09-26T00:57:48.606Z,3.35
2022-09-26T00:59:59.758Z,3.85
2022-09-26T01:02:02.756Z,3.22
2022-09-26T01:04:07.525Z,3.67
2022-09-26T01:06:09.599Z,3.33
2022-09-26T01:08:15.213Z,3.55
2022-09-26T01:10:17.388Z,3.25
2022-09-26T01:12:23.579Z,3.58
2022-09-26T01:14:25.661Z,3.20
2022-09-26T01:16:28.576Z,2.78
2022-09-26T01:18:31.234Z,3.78
2022-09-26T01:20:39.548Z,3.50
2022-09-26T01:22:50.149Z,3.70
2022-09-26T01:25:07.601Z,3.88
2022-09-26T01:27:40.224Z,3.17
2022-09-26T01:29:54.213Z,3.22
2022-09-26T01:32:37.573Z,3.50
2022-09-26T01:35:08.813Z,2.78
2022-09-26T01:37:34.469Z,3.63
2022-09-26T01:40:04.787Z,3.42
2022-09-26T01:42:15.877Z,3.00
2022-09-26T01:44:41.055Z,3.13
2022-09-26T01:47:01.477Z,3.58
2022-09-26T01:49:25.182Z,3.92
2022-09-26T01:51:41.490Z,3.10
2022-09-26T01:53:54.109Z,3.97
2022-09-26T01:56:12.022Z,4.38
2022-09-26T01:58:33.656Z,4.18
2022-09-26T02:00:38.962Z,3.67
2022-09-26T02:02:48.859Z,3.60
2022-09-26T02:04:55.627Z,4.18
2022-09-26T02:07:25.146Z,4.38
2022-09-26T02:09:39.000Z,4.13
2022-09-26T02:11:49.407Z,4.78
2022-09-26T02:13:55.803Z,4.35
2022-09-26T02:16:08.480Z,4.38
2022-09-26T02:18:20.547Z,5.07
2022-09-26T02:20:35.225Z,4.32
2022-09-26T02:22:40.310Z,4.05
2022-09-26T02:24:42.406Z,3.90
2022-09-26T02:26:45.006Z,4.45
2022-09-26T02:28:47.525Z,4.13
2022-09-26T02:30:54.542Z,3.85
2022-09-26T02:32:57.790Z,4.15
2022-09-26T02:35:01.551Z,4.28
2022-09-26T02:37:08.106Z,5.35
2022-09-26T02:39:13.430Z,5.18
2022-09-26T02:41:29.712Z,5.85
2022-09-26T02:43:46.025Z,4.70
2022-09-26T02:46:00.716Z,5.00
2022-09-26T02:48:23.092Z,5.40
2022-09-26T02:50:40.348Z,5.68
2022-09-26T02:53:22.921Z,6.07
2022-09-26T02:55:39.728Z,6.05
2022-09-26T02:58:05.724Z,5.95
2022-09-26T03:00:20.255Z,6.05
2022-09-26T03:02:34.377Z,6.32
2022-09-26T03:05:13.411Z,6.90
2022-09-26T03:07:24.815Z,6.95
2022-09-26T03:09:29.714Z,6.43
2022-09-26T03:11:33.817Z,6.63
2022-09-26T03:13:39.326Z,8.35
2022-09-26T03:15:45.771Z,9.25
2022-09-26T03:17:54.367Z,9.13
2022-09-26T03:20:05.309Z,7.65
2022-09-26T03:22:10.809Z,8.50
2022-09-26T03:24:14.088Z,7.80
2022-09-26T03:26:20.066Z,7.80
2022-09-26T03:28:32.754Z,7.85
2022-09-26T03:30:37.933Z,7.85
2022-09-26T03:33:03.403Z,8.30
2022-09-26T03:35:10.007Z,8.48
2022-09-26T03:37:12.494Z,7.97
2022-09-26T03:39:15.261Z,8.43
2022-09-26T03:41:25.445Z,7.40
2022-09-26T03:43:43.951Z,7.95
2022-09-26T03:45:47.413Z,6.75
2022-09-26T03:47:57.334Z,6.15
2022-09-26T03:50:00.359Z,5.82
2022-09-26T03:52:03.981Z,6.15
2022-09-26T03:54:06.346Z,6.20
2022-09-26T03:56:15.268Z,5.65
2022-09-26T03:58:18.159Z,5.30
2022-09-26T04:00:20.129Z,5.00
2022-09-26T04:02:22.933Z,5.20
2022-09-26T04:04:36.988Z,4.97
2022-09-26T04:06:39.338Z,4.45
2022-09-26T04:08:42.557Z,5.88
2022-09-26T04:10:46.287Z,5.45
2022-09-26T04:12:48.887Z,5.43
2022-09-26T04:14:52.264Z,5.68
2022-09-26T04:16:56.994Z,5.47
2022-09-26T04:19:06.669Z,5.38
2022-09-26T04:21:16.893Z,5.28
2022-09-26T04:23:19.005Z,5.32
2022-09-26T04:25:21.085Z,4.50
2022-09-26T04:27:27.816Z,4.57
2022-09-26T04:29:29.922Z,4.80
2022-09-26T04:31:45.610Z,4.22
2022-09-26T04:33:57.269Z,4.40
2022-09-26T04:36:04.051Z,4.40
2022-09-26T04:38:12.203Z,5.13
2022-09-26T04:40:14.573Z,7.72
2022-09-26T04:42:28.099Z,8.27
2022-09-26T04:44:30.690Z,9.57
2022-09-26T04:46:34.150Z,8.05
2022-09-26T04:48:36.778Z,7.10
2022-09-26T04:50:49.289Z,7.22
2022-09-26T04:52:51.649Z,7.45
2022-09-26T04:54:53.935Z,6.95
2022-09-26T04:56:56.204Z,6.30
2022-09-26T04:58:59.803Z,5.20
2022-09-26T05:01:14.626Z,4.55
2022-09-26T05:03:31.192Z,3.95
2022-09-26T05:05:33.997Z,4.03
2022-09-26T05:07:43.763Z,4.30
2022-09-26T05:09:46.695Z,5.07
2022-09-26T05:11:51.555Z,5.93
2022-09-26T05:13:54.196Z,6.40
2022-09-26T05:16:03.097Z,7.18
2022-09-26T05:18:08.146Z,11.05
2022-09-26T05:20:11.556Z,11.18
2022-09-26T05:22:31.773Z,12.63
2022-09-26T05:24:52.916Z,12.25
2022-09-26T05:26:55.767Z,11.80
2022-09-26T05:29:06.863Z,9.73
2022-09-26T05:31:30.708Z,8.82
2022-09-26T05:33:32.707Z,8.77
2022-09-26T05:35:34.913Z,7.05
2022-09-26T05:37:37.380Z,5.28
2022-09-26T05:39:58.557Z,4.53
2022-09-26T05:42:04.813Z,4.68
2022-09-26T05:44:06.678Z,4.28
2022-09-26T05:46:12.301Z,4.22
2022-09-26T05:48:20.927Z,4.90
2022-09-26T05:50:24.863Z,4.57
2022-09-26T05:52:28.915Z,4.90
2022-09-26T05:54:31.231Z,6.05
2022-09-26T05:56:37.652Z,6.05
2022-09-26T05:58:42.802Z,10.45
2022-09-26T06:00:51.670Z,13.30
2022-09-26T06:02:58.886Z,12.20
2022-09-26T06:05:11.686Z,11.93
2022-09-26T06:07:28.116Z,11.55
2022-09-26T06:09:30.226Z,10.10
2022-09-26T06:11:48.948Z,10.13
2022-09-26T06:13:51.963Z,8.75
2022-09-26T06:15:54.772Z,8.77
2022-09-26T06:18:04.973Z,9.27
2022-09-26T06:20:08.941Z,9.77
2022-09-26T06:22:11.968Z,9.32
2022-09-26T06:24:14.428Z,8.50
2022-09-26T06:26:23.755Z,7.30
2022-09-26T06:28:27.144Z,7.90
2022-09-26T06:30:29.448Z,7.22
2022-09-26T06:32:41.607Z,6.65
2022-09-26T06:34:58.384Z,6.80
2022-09-26T06:37:19.011Z,7.07
2022-09-26T06:39:21.504Z,7.05
2022-09-26T06:41:26.627Z,6.20
2022-09-26T06:43:29.332Z,5.45
2022-09-26T06:45:50.900Z,5.53
2022-09-26T06:48:05.106Z,5.03
2022-09-26T06:50:23.244Z,5.03
2022-09-26T06:52:35.086Z,5.03
2022-09-26T06:54:38.318Z,4.35
2022-09-26T06:56:40.838Z,4.20
2022-09-26T06:58:43.277Z,4.45
2022-09-26T07:00:45.861Z,5.30
2022-09-26T07:03:01.476Z,5.55
2022-09-26T07:05:24.857Z,5.78
2022-09-26T07:07:28.182Z,5.82
2022-09-26T07:09:30.441Z,7.70
2022-09-26T07:12:09.376Z,10.98
2022-09-26T07:14:02.380Z,21.95
2022-09-26T07:16:05.678Z,16.40
2022-09-26T07:18:27.060Z,18.50
2022-09-26T07:20:40.406Z,45.97
2022-09-26T07:23:11.402Z,79.20
2022-09-26T07:25:15.665Z,62.35
2022-09-26T07:27:18.527Z,54.15
2022-09-26T07:29:22.171Z,45.45
2022-09-26T07:31:24.957Z,66.35
2022-09-26T07:33:51.262Z,61.20
2022-09-26T07:35:54.172Z,71.00
2022-09-26T07:37:59.939Z,81.63
2022-09-26T07:40:03.336Z,88.50
2022-09-26T07:42:08.896Z,96.95
2022-09-26T07:46:51.812Z,89.82
2022-09-26T07:49:13.073Z,57.55
2022-09-26T07:51:33.822Z,60.67
2022-09-26T07:53:41.435Z,62.30
2022-09-26T07:56:10.536Z,68.20
2022-09-26T07:58:48.539Z,82.53
2022-09-26T08:01:15.551Z,85.63
2022-09-26T08:03:37.238Z,85.93
2022-09-26T08:05:48.948Z,72.50
2022-09-26T08:07:53.283Z,66.82
2022-09-26T08:10:21.402Z,47.10
2022-09-26T08:12:42.935Z,30.55
2022-09-26T08:14:59.074Z,25.60
2022-09-26T08:17:14.511Z,19.33
2022-09-26T08:19:17.672Z,18.85
2022-09-26T08:21:22.234Z,15.13
2022-09-26T08:23:27.184Z,17.08
2022-09-26T08:25:55.672Z,20.77
2022-09-26T08:28:18.713Z,21.40
2022-09-26T08:30:27.928Z,18.60
2022-09-26T08:32:32.541Z,15.45
2022-09-26T08:34:35.682Z,14.38
2022-09-26T08:36:58.487Z,13.43
2022-09-26T08:39:23.211Z,11.40
2022-09-26T08:42:11.849Z,10.70
2022-09-26T08:44:58.597Z,11.18
2022-09-26T08:47:35.685Z,15.02
2022-09-26T08:50:20.584Z,16.10
2022-09-26T08:52:39.807Z,13.60
2022-09-26T08:54:46.439Z,13.00
2022-09-26T08:56:57.771Z,11.20
2022-09-26T08:59:05.417Z,10.02
2022-09-26T09:01:18.308Z,9.02
2022-09-26T09:04:16.615Z,11.55
2022-09-26T09:06:19.744Z,10.70
2022-09-26T09:08:25.618Z,9.32
2022-09-26T09:11:10.761Z,10.02
2022-09-26T09:13:18.716Z,8.65
2022-09-26T09:16:09.563Z,8.23
2022-09-26T09:18:56.613Z,9.85
2022-09-26T09:21:38.013Z,8.00
2022-09-26T09:24:29.660Z,8.48
2022-09-26T09:29:38.078Z,9.43
2022-09-26T09:32:09.686Z,9.70
2022-09-26T09:34:44.931Z,8.90
2022-09-26T09:37:23.503Z,8.45
2022-09-26T09:39:48.180Z,12.70
2022-09-26T09:41:58.694Z,12.23
2022-09-26T09:44:05.758Z,10.57
2022-09-26T09:46:19.869Z,9.43
2022-09-26T09:48:24.135Z,8.98
2022-09-26T09:51:00.948Z,9.40
2022-09-26T09:53:38.428Z,8.65
2022-09-26T09:56:01.137Z,9.68
2022-09-26T09:58:41.478Z,9.00
2022-09-26T10:01:02.789Z,9.90
2022-09-26T10:03:38.248Z,8.55
2022-09-26T10:05:47.054Z,9.10
2022-09-26T10:07:59.503Z,8.68
2022-09-26T10:10:39.041Z,8.50
2022-09-26T10:13:11.295Z,7.30
2022-09-26T10:16:16.441Z,5.95
2022-09-26T10:18:28.297Z,6.25
2022-09-26T10:20:54.103Z,5.85
2022-09-26T10:22:56.283Z,5.78
2022-09-26T10:25:08.784Z,4.22
2022-09-26T10:27:32.318Z,3.70
2022-09-26T10:29:38.143Z,9.25
2022-09-26T10:31:43.727Z,13.50
2022-09-26T10:33:59.500Z,13.57
2022-09-26T10:36:19.813Z,24.00
2022-09-26T10:38:29.957Z,9.27
2022-09-26T10:40:53.393Z,6.13
2022-09-26T10:43:19.432Z,5.95
2022-09-26T10:45:27.753Z,5.05
2022-09-26T10:48:07.103Z,8.00
2022-09-26T10:50:28.636Z,7.22
2022-09-26T10:52:56.817Z,8.18
2022-09-26T10:55:07.226Z,7.00
2022-09-26T10:57:22.440Z,7.03
2022-09-26T10:59:27.496Z,6.35
2022-09-26T11:01:31.904Z,7.15
2022-09-26T11:03:44.127Z,7.10
2022-09-26T11:05:59.842Z,9.55
2022-09-26T11:08:10.399Z,8.43
2022-09-26T11:10:32.632Z,7.03
2022-09-26T11:13:16.775Z,11.05
2022-09-26T11:15:19.904Z,14.60
2022-09-26T11:17:22.160Z,13.65
2022-09-26T11:19:53.849Z,19.75
2022-09-26T11:22:27.201Z,16.88
2022-09-26T11:24:42.930Z,18.33
2022-09-26T11:27:27.325Z,43.95
2022-09-26T11:29:55.869Z,26.67
2022-09-26T11:32:00.385Z,31.00
2022-09-26T11:34:29.722Z,22.42
2022-09-26T11:37:02.556Z,13.35
2022-09-26T11:39:28.681Z,9.65
2022-09-26T11:42:07.572Z,7.70
2022-09-26T11:44:27.405Z,11.32
2022-09-26T11:47:29.389Z,17.65
2022-09-26T11:49:44.344Z,13.15
2022-09-26T11:52:20.799Z,9.75
2022-09-26T11:54:45.802Z,9.18
2022-09-26T11:57:11.947Z,10.57
2022-09-26T11:59:42.216Z,12.68
2022-09-26T12:01:56.036Z,11.15
2022-09-26T12:04:06.562Z,8.15
2022-09-26T12:06:36.812Z,7.82
2022-09-26T12:09:10.115Z,9.15
2022-09-26T12:11:32.950Z,9.82
2022-09-26T12:13:54.595Z,10.88
2022-09-26T12:16:14.607Z,13.63
2022-09-26T12:18:43.971Z,10.20
2022-09-26T12:21:08.935Z,12.35
2022-09-26T12:23:29.842Z,11.85
2022-09-26T12:25:47.502Z,11.43
2022-09-26T12:28:27.151Z,11.05
2022-09-26T12:30:44.100Z,14.05
2022-09-26T12:32:56.642Z,13.68
2022-09-26T12:35:29.727Z,12.57
2022-09-26T12:38:24.096Z,10.55
2022-09-26T12:41:07.110Z,10.40
2022-09-26T12:43:45.058Z,9.60
2022-09-26T12:46:12.446Z,5.97
2022-09-26T12:48:40.983Z,7.20
2022-09-26T12:51:01.655Z,6.78
2022-09-26T12:53:19.427Z,7.57
2022-09-26T12:55:45.751Z,12.30
2022-09-26T12:58:12.224Z,7.18
2022-09-26T13:00:21.015Z,6.25
2022-09-26T13:02:40.590Z,6.10
2022-09-26T13:04:52.579Z,7.05
2022-09-26T13:07:26.529Z,8.20
2022-09-26T13:09:37.463Z,9.25
2022-09-26T13:11:48.766Z,14.57
2022-09-26T13:14:12.329Z,11.65
2022-09-26T13:16:43.907Z,20.75
2022-09-26T13:18:53.956Z,15.38
2022-09-26T13:21:03.110Z,14.48
2022-09-26T13:23:27.609Z,13.73
2022-09-26T13:25:50.031Z,10.27
2022-09-26T13:28:38.044Z,19.02
2022-09-26T13:30:46.584Z,28.90
2022-09-26T13:33:11.304Z,39.33
2022-09-26T13:35:20.986Z,25.98
2022-09-26T13:37:39.802Z,20.50
2022-09-26T13:39:50.913Z,21.38
2022-09-26T13:42:42.778Z,17.30
2022-09-26T13:45:12.692Z,22.48
2022-09-26T13:47:35.701Z,24.35
2022-09-26T13:50:20.096Z,16.73
2022-09-26T13:53:05.469Z,18.05
2022-09-26T13:55:10.867Z,17.25
2022-09-26T13:57:52.449Z,12.35
2022-09-26T13:59:54.747Z,33.40
2022-09-26T14:02:28.444Z,35.85
2022-09-26T14:04:37.757Z,36.10
2022-09-26T14:07:04.337Z,21.52
2022-09-26T14:09:27.151Z,12.88
2022-09-26T14:11:49.932Z,13.32
2022-09-26T14:14:16.484Z,11.38
2022-09-26T14:16:27.734Z,14.30
2022-09-26T14:19:04.449Z,13.02
2022-09-26T14:21:23.825Z,20.60
2022-09-26T14:23:50.752Z,36.65
2022-09-26T14:25:57.069Z,19.05
2022-09-26T14:28:31.953Z,19.65
2022-09-26T14:30:37.747Z,30.63
2022-09-26T14:32:44.517Z,35.45
2022-09-26T14:34:59.690Z,32.50
2022-09-26T14:37:06.049Z,25.73
2022-09-26T14:39:24.709Z,31.80
2022-09-26T14:41:33.677Z,29.85
2022-09-26T14:43:36.346Z,17.00
2022-09-26T14:45:50.538Z,13.88
2022-09-26T14:48:11.730Z,32.97
2022-09-26T14:50:20.786Z,27.05
2022-09-26T14:52:25.500Z,21.58
2022-09-26T14:54:41.392Z,21.63
2022-09-26T14:56:50.792Z,19.83
2022-09-26T14:58:54.269Z,19.20
2022-09-26T15:00:58.062Z,17.98
2022-09-26T15:03:06.382Z,16.80
2022-09-26T15:05:08.674Z,23.70
2022-09-26T15:07:20.774Z,17.83
2022-09-26T15:09:45.336Z,13.23
2022-09-26T15:11:58.507Z,10.45
2022-09-26T15:14:16.999Z,7.85
2022-09-26T15:16:41.099Z,7.10
2022-09-26T15:18:49.002Z,7.80
2022-09-26T15:21:01.796Z,11.05
2022-09-26T15:23:23.875Z,14.60
2022-09-26T15:25:55.560Z,21.13
2022-09-26T15:27:59.673Z,23.38
2022-09-26T15:30:27.607Z,21.88
2022-09-26T15:32:32.596Z,22.55
2022-09-26T15:34:40.110Z,22.77
2022-09-26T15:36:44.552Z,25.95
2022-09-26T15:38:47.515Z,24.50
2022-09-26T15:41:01.814Z,22.75
2022-09-26T15:43:11.647Z,23.55
2022-09-26T15:45:27.691Z,22.10
2022-09-26T15:47:30.317Z,20.08
2022-09-26T15:49:33.107Z,18.35
2022-09-26T15:51:39.468Z,13.57
2022-09-26T15:54:09.909Z,12.35
2022-09-26T15:56:43.497Z,11.02
2022-09-26T15:58:54.794Z,11.25
2022-09-26T16:01:00.459Z,11.95
2022-09-26T16:03:24.003Z,10.70
2022-09-26T16:05:28.256Z,11.48
2022-09-26T16:07:33.591Z,14.77
2022-09-26T16:09:43.369Z,16.85
2022-09-26T16:11:50.478Z,14.82
2022-09-26T16:13:53.957Z,17.45
2022-09-26T16:16:04.464Z,13.63
2022-09-26T16:18:25.603Z,15.70
2022-09-26T16:20:31.739Z,13.52
2022-09-26T16:22:45.518Z,11.48
2022-09-26T16:24:47.755Z,11.45
2022-09-26T16:26:53.725Z,12.23
2022-09-26T16:28:58.137Z,12.90
2022-09-26T16:31:13.863Z,11.18
2022-09-26T16:33:31.246Z,11.43
2022-09-26T16:35:36.074Z,11.45
2022-09-26T16:37:38.678Z,11.45
2022-09-26T16:39:41.297Z,11.35
2022-09-26T16:42:02.377Z,11.88
2022-09-26T16:44:26.203Z,11.10
2022-09-26T16:46:36.013Z,12.10
2022-09-26T16:48:50.327Z,10.88
2022-09-26T16:51:13.707Z,11.15
2022-09-26T16:53:15.775Z,11.48
2022-09-26T16:55:17.971Z,8.88
2022-09-26T16:57:26.699Z,9.73
2022-09-26T16:59:31.650Z,9.40
2022-09-26T17:01:52.984Z,9.30
2022-09-26T17:03:59.877Z,9.82
2022-09-26T17:06:02.588Z,10.05
2022-09-26T17:08:07.050Z,10.50
2022-09-26T17:10:09.925Z,9.15
2022-09-26T17:12:12.092Z,10.25
2022-09-26T17:14:21.237Z,10.05
2022-09-26T17:16:23.592Z,11.00
2022-09-26T17:18:33.434Z,11.68
2022-09-26T17:20:36.250Z,12.05
2022-09-26T17:22:39.306Z,12.77
2022-09-26T17:24:42.724Z,12.65
2022-09-26T17:26:56.714Z,13.45
2022-09-26T17:29:01.533Z,14.60
2022-09-26T17:31:07.830Z,12.90
2022-09-26T17:33:11.073Z,18.52
2022-09-26T17:35:20.200Z,22.65
2022-09-26T17:37:22.729Z,21.02
2022-09-26T17:39:27.907Z,19.58
2022-09-26T17:41:32.758Z,22.63
2022-09-26T17:43:34.833Z,22.90
2022-09-26T17:45:44.285Z,22.05
2022-09-26T17:47:46.891Z,46.17
2022-09-26T17:49:54.956Z,62.10
2022-09-26T17:52:00.875Z,51.42
2022-09-26T17:54:07.044Z,42.30
2022-09-26T17:56:11.377Z,38.60
2022-09-26T17:58:13.750Z,35.85
2022-09-26T18:00:18.174Z,29.77
2022-09-26T18:02:37.250Z,30.30
2022-09-26T18:04:41.600Z,27.92
2022-09-26T18:06:44.194Z,29.98
2022-09-26T18:08:46.586Z,30.35
2022-09-26T18:10:52.817Z,29.48
2022-09-26T18:12:59.191Z,30.10
2022-09-26T18:15:04.979Z,27.65
2022-09-26T18:17:07.537Z,29.05
2022-09-26T18:19:10.472Z,28.63
2022-09-26T18:21:15.800Z,27.65
2022-09-26T18:23:21.938Z,25.98
2022-09-26T18:25:25.527Z,27.27
2022-09-26T18:27:27.806Z,27.50
2022-09-26T18:29:37.376Z,28.02
2022-09-26T18:31:41.391Z,28.42
2022-09-26T18:33:43.671Z,28.52
2022-09-26T18:35:47.897Z,25.65
2022-09-26T18:37:52.120Z,26.85
2022-09-26T18:39:56.402Z,26.85
2022-09-26T18:42:06.194Z,27.83
2022-09-26T18:44:16.882Z,27.25
2022-09-26T18:46:19.639Z,27.17
2022-09-26T18:48:34.077Z,30.23
2022-09-26T18:50:38.562Z,32.65
2022-09-26T18:52:40.693Z,30.88
2022-09-26T18:54:45.232Z,31.02
2022-09-26T18:57:07.197Z,30.13
2022-09-26T18:59:10.406Z,30.75
2022-09-26T19:01:21.409Z,30.42
2022-09-26T19:03:25.537Z,33.45
2022-09-26T19:05:27.680Z,33.83
2022-09-26T19:07:33.425Z,34.65
2022-09-26T19:09:36.582Z,30.92
2022-09-26T19:11:38.776Z,30.35
2022-09-26T19:13:41.970Z,30.40
2022-09-26T19:15:44.500Z,27.92
2022-09-26T19:17:48.392Z,27.25
2022-09-26T19:19:51.427Z,26.25
2022-09-26T19:22:12.702Z,25.40
2022-09-26T19:24:54.509Z,21.52
2022-09-26T19:27:06.608Z,15.50
2022-09-26T19:29:14.714Z,16.92
2022-09-26T19:31:16.845Z,15.35
2022-09-26T19:33:19.991Z,15.02
2022-09-26T19:35:32.407Z,14.45
2022-09-26T19:37:37.376Z,12.68
2022-09-26T19:39:39.821Z,13.25
2022-09-26T19:41:42.772Z,14.80
2022-09-26T19:43:47.580Z,14.80
2022-09-26T19:45:53.367Z,13.13
2022-09-26T19:47:56.427Z,14.45
2022-09-26T19:49:58.766Z,15.63
2022-09-26T19:52:02.642Z,15.00
2022-09-26T19:54:06.479Z,13.85
2022-09-26T19:56:09.287Z,15.07
2022-09-26T19:58:26.105Z,16.90
2022-09-26T20:00:29.218Z,16.65
2022-09-26T20:02:32.789Z,17.52
2022-09-26T20:04:34.936Z,19.92
2022-09-26T20:06:36.955Z,19.13
2022-09-26T20:08:38.983Z,22.17
2022-09-26T20:10:41.396Z,28.55
2022-09-26T20:12:44.480Z,22.50
2022-09-26T20:14:46.699Z,22.23
2022-09-26T20:16:50.080Z,19.42
2022-09-26T20:18:58.680Z,19.10
2022-09-26T20:21:03.670Z,17.52
2022-09-26T20:23:13.282Z,17.45
2022-09-26T20:25:27.504Z,14.20
2022-09-26T20:27:34.208Z,14.57
2022-09-26T20:29:54.640Z,14.35
2022-09-26T20:31:56.701Z,14.43
2022-09-26T20:34:00.298Z,14.35
2022-09-26T20:36:04.969Z,15.80
2022-09-26T20:38:21.246Z,16.38
2022-09-26T20:40:24.379Z,17.52
2022-09-26T20:42:33.099Z,16.98
2022-09-26T20:44:36.551Z,17.38
2022-09-26T20:46:43.427Z,17.10
2022-09-26T20:48:48.003Z,17.25
2022-09-26T20:50:51.034Z,17.98
2022-09-26T20:52:53.528Z,18.05
2022-09-26T20:54:57.115Z,18.08
2022-09-26T20:57:01.479Z,16.27
2022-09-26T20:59:03.652Z,17.98
2022-09-26T21:01:06.201Z,16.63
2022-09-26T21:03:12.832Z,17.25
2022-09-26T21:05:18.085Z,17.02
2022-09-26T21:07:21.547Z,15.73
2022-09-26T21:09:24.182Z,16.83
2022-09-26T21:11:26.329Z,16.88
2022-09-26T21:13:28.816Z,16.13
2022-09-26T21:15:33.430Z,15.60
2022-09-26T21:17:36.107Z,16.42
2022-09-26T21:19:38.417Z,17.02
2022-09-26T21:22:02.069Z,16.45
2022-09-26T21:24:35.334Z,16.45
2022-09-26T21:26:37.689Z,17.10
2022-09-26T21:28:40.606Z,16.52
2022-09-26T21:30:43.758Z,17.35
2022-09-26T21:32:53.548Z,16.45
2022-09-26T21:35:01.715Z,18.27
2022-09-26T21:37:04.216Z,18.75
2022-09-26T21:39:06.754Z,22.85
2022-09-26T21:41:09.836Z,27.67
2022-09-26T21:43:16.270Z,29.00
2022-09-26T21:45:23.606Z,29.40
2022-09-26T21:47:29.002Z,26.23
2022-09-26T21:49:31.288Z,25.48
2022-09-26T21:51:35.105Z,28.88
2022-09-26T21:53:45.907Z,25.70
2022-09-26T21:55:53.297Z,27.05
2022-09-26T21:58:00.651Z,27.73
2022-09-26T22:00:07.431Z,26.27
2022-09-26T22:02:15.869Z,29.80
2022-09-26T22:04:19.367Z,42.17
2022-09-26T22:06:21.945Z,54.25
2022-09-26T22:08:24.350Z,41.63
2022-09-26T22:10:28.124Z,35.13
2022-09-26T22:12:30.535Z,32.97
2022-09-26T22:14:32.937Z,27.75
2022-09-26T22:16:35.233Z,26.42
2022-09-26T22:18:39.196Z,26.08
2022-09-26T22:20:41.240Z,25.90
2022-09-26T22:22:44.169Z,24.58
2022-09-26T22:24:46.489Z,28.25
2022-09-26T22:26:48.656Z,29.48
2022-09-26T22:28:51.016Z,28.02
2022-09-26T22:30:55.105Z,27.52
2022-09-26T22:32:57.765Z,25.95
2022-09-26T22:34:59.938Z,25.27
2022-09-26T22:37:02.172Z,26.08
2022-09-26T22:39:05.120Z,23.02
2022-09-26T22:41:08.555Z,22.30
2022-09-26T22:43:11.187Z,19.95
2022-09-26T22:45:13.738Z,18.42
2022-09-26T22:47:15.855Z,20.60
2022-09-26T22:49:17.967Z,20.40
2022-09-26T22:51:19.981Z,19.23
2022-09-26T22:53:22.103Z,19.73
2022-09-26T22:55:24.797Z,20.52
2022-09-26T22:57:27.174Z,19.35
2022-09-26T22:59:29.431Z,20.55
2022-09-26T23:01:31.593Z,19.30
2022-09-26T23:03:34.772Z,20.83
2022-09-26T23:05:36.903Z,22.17
2022-09-26T23:07:39.196Z,21.40
2022-09-26T23:09:41.768Z,30.35
2022-09-26T23:11:44.210Z,42.00
2022-09-26T23:13:46.989Z,44.92
2022-09-26T23:15:49.274Z,49.58
2022-09-26T23:17:51.365Z,39.38
2022-09-26T23:19:56.568Z,35.13
2022-09-26T23:21:59.005Z,27.95
2022-09-26T23:24:01.597Z,26.85
2022-09-26T23:26:06.660Z,24.17
2022-09-26T23:28:09.193Z,26.20
2022-09-26T23:30:12.131Z,24.88
2022-09-26T23:32:14.673Z,23.83
2022-09-26T23:34:17.971Z,24.10
2022-09-26T23:36:20.693Z,23.77
2022-09-26T23:38:23.266Z,22.67
2022-09-26T23:40:26.606Z,22.35
2022-09-26T23:42:29.054Z,22.40
2022-09-26T23:44:35.475Z,21.95
2022-09-26T23:46:37.842Z,23.35
2022-09-26T23:48:40.507Z,23.58
2022-09-26T23:50:45.374Z,41.47
2022-09-26T23:52:47.689Z,51.28
2022-09-26T23:54:49.881Z,50.25
2022-09-26T23:56:52.086Z,46.10
2022-09-26T23:58:57.583Z,44.95
